This is the latest recevied weather packets stored in our database for station/object AE0NK. If no packets are shown the sender has not sent any weather packets the latest 10 day(s).
| Time | Temp. | Humidity | Pressure | Rain* | Wind** | Luminosity | Snow |
|---|---|---|---|---|---|---|---|
| 1777929491 | 23.33° C | 44% | 998.7 hPa | 0 mm | - | 265 W/m² | - |
| 1777929211 | 23.89° C | 40% | 999 hPa | 0 mm | - | 58 W/m² | - |
| 1777928909 | 23.89° C | 39% | 998.8 hPa | 0 mm | - | 33 W/m² | - |
| 1777928608 | 23.89° C | 48% | 998.8 hPa | 0 mm | - | 65 W/m² | - |
| 1777928303 | 23.89° C | 39% | 998.6 hPa | 0 mm | - | 91 W/m² | - |
| 1777928000 | 23.33° C | 45% | 998.6 hPa | 0 mm | - | 241 W/m² | - |
| 1777927697 | 22.22° C | 49% | 999 hPa | 0 mm | - | 114 W/m² | - |
| 1777927395 | 22.22° C | 50% | 998.9 hPa | 0 mm | - | 84 W/m² | - |
| 1777927093 | 23.33° C | 50% | 999 hPa | 0 mm | - | 91 W/m² | - |
| 1777926812 | 26.67° C | 30% | 999 hPa | 0 mm | - | 97 W/m² | - |
| 1777926508 | 26.67° C | 29% | 998.6 hPa | 0 mm | - | 100 W/m² | - |
| 1777926203 | 27.22° C | 30% | 998.7 hPa | 0 mm | - | 225 W/m² | - |
| 1777925902 | 27.22° C | 30% | 998.8 hPa | 0 mm | - | 868 W/m² | - |
| 1777925599 | 27.78° C | 29% | 998.9 hPa | 0 mm | - | 821 W/m² | - |
| 1777925297 | 27.22° C | 30% | 999 hPa | 0 mm | - | 844 W/m² | - |
| 1777924994 | 27.22° C | 29% | 999.1 hPa | 0 mm | - | 167 W/m² | - |
| 1777924709 | 27.78° C | 29% | 999 hPa | 0 mm | - | 153 W/m² | - |
| 1777924407 | 27.22° C | 31% | 999.2 hPa | 0 mm | - | 937 W/m² | - |
| 1777924106 | 26.67° C | 30% | 999.3 hPa | 0 mm | - | 171 W/m² | - |
| 1777923805 | 27.22° C | 29% | 999.3 hPa | 0 mm | - | 178 W/m² | - |
| 1777923502 | 27.78° C | 28% | 999.3 hPa | 0 mm | - | 919 W/m² | - |
| 1777923198 | 27.78° C | 30% | 999.3 hPa | 0 mm | - | 854 W/m² | - |
| 1777922896 | 27.78° C | 30% | 999.3 hPa | 0 mm | - | 933 W/m² | - |
| 1777922594 | 27.22° C | 30% | 999.5 hPa | 0 mm | - | 907 W/m² | - |
| 1777922293 | 26.67° C | 31% | 999.4 hPa | 0 mm | - | 807 W/m² | - |
* Rain latest hour (hover to see other rain measurements)
** Current wind speed in m/s (hover to see current wind gust speed)